createdAt,value
2019-01-10T00:00:23.543Z,-3.10
2019-01-10T00:02:51.978Z,-3.10
2019-01-10T00:05:20.503Z,-3.10
2019-01-10T00:07:49.192Z,-3.10
2019-01-10T00:10:18.375Z,-3.20
2019-01-10T00:12:47.140Z,-3.20
2019-01-10T00:15:17.948Z,-3.00
2019-01-10T00:17:46.464Z,-2.90
2019-01-10T00:20:18.741Z,-3.00
2019-01-10T00:22:47.212Z,-3.00
2019-01-10T00:25:16.108Z,-3.00
2019-01-10T00:27:45.555Z,-2.90
2019-01-10T00:30:16.782Z,-2.90
2019-01-10T00:32:45.455Z,-2.80
2019-01-10T00:35:14.030Z,-2.90
2019-01-10T00:37:42.554Z,-2.80
2019-01-10T00:40:13.654Z,-2.80
2019-01-10T00:42:49.246Z,-2.70
2019-01-10T00:45:14.767Z,-2.80
2019-01-10T00:47:43.284Z,-2.80
2019-01-10T00:50:23.591Z,-2.60
2019-01-10T00:52:53.063Z,-2.60
2019-01-10T00:55:21.467Z,-2.60
2019-01-10T00:57:50.391Z,-2.60
2019-01-10T01:00:23.911Z,-2.60
2019-01-10T01:02:52.463Z,-2.60
2019-01-10T01:05:21.707Z,-2.60
2019-01-10T01:07:50.218Z,-2.70
2019-01-10T01:10:21.361Z,-2.60
2019-01-10T01:12:57.976Z,-2.60
2019-01-10T01:15:19.915Z,-2.50
2019-01-10T01:17:48.577Z,-2.50
2019-01-10T01:20:19.045Z,-2.40
2019-01-10T01:22:48.011Z,-2.50
2019-01-10T01:25:17.170Z,-2.50
2019-01-10T01:27:45.807Z,-2.50
2019-01-10T01:30:18.144Z,-2.40
2019-01-10T01:32:46.548Z,-2.50
2019-01-10T01:35:15.520Z,-2.50
2019-01-10T01:37:44.423Z,-2.40
2019-01-10T01:40:15.374Z,-2.40
2019-01-10T01:42:44.116Z,-2.40
2019-01-10T01:45:13.786Z,-2.40
2019-01-10T01:47:42.454Z,-2.50
2019-01-10T01:50:14.391Z,-2.60
2019-01-10T01:52:43.099Z,-2.50
2019-01-10T01:55:12.090Z,-2.40
2019-01-10T01:57:40.495Z,-2.40
2019-01-10T02:00:14.533Z,-2.40
2019-01-10T02:08:41.503Z,-2.60
2019-01-10T02:11:09.902Z,-2.60
2019-01-10T02:13:38.486Z,-2.60
2019-01-10T02:16:07.272Z,-2.40
2019-01-10T02:18:35.671Z,-2.30
2019-01-10T02:21:04.440Z,-2.20
2019-01-10T02:23:33.142Z,-2.30
2019-01-10T02:26:02.016Z,-2.30
2019-01-10T02:28:30.739Z,-2.30
2019-01-10T02:31:00.507Z,-2.30
2019-01-10T02:33:29.075Z,-2.30
2019-01-10T02:35:57.541Z,-2.20
2019-01-10T02:38:26.396Z,-2.30
2019-01-10T02:40:55.235Z,-2.20
2019-01-10T02:43:26.579Z,-2.20
2019-01-10T02:45:54.355Z,-2.20
2019-01-10T02:48:23.147Z,-2.20
2019-01-10T02:50:51.544Z,-2.20
2019-01-10T02:53:20.619Z,-2.20
2019-01-10T02:55:49.372Z,-2.30
2019-01-10T02:58:17.768Z,-2.40
2019-01-10T03:00:46.372Z,-2.30
2019-01-10T03:03:14.991Z,-2.20
2019-01-10T03:05:43.396Z,-2.10
2019-01-10T03:08:12.216Z,-2.10
2019-01-10T03:10:40.876Z,-2.20
2019-01-10T03:13:09.340Z,-2.10
2019-01-10T03:15:40.571Z,-2.10
2019-01-10T03:18:09.342Z,-2.10
2019-01-10T03:20:37.888Z,-2.00
2019-01-10T03:23:06.375Z,-2.00
2019-01-10T03:25:34.954Z,-2.00
2019-01-10T03:28:03.699Z,-2.10
2019-01-10T03:30:32.434Z,-2.10
2019-01-10T03:33:01.141Z,-2.10
2019-01-10T03:35:29.704Z,-2.10
2019-01-10T04:02:02.736Z,-2.20
2019-01-10T04:04:31.665Z,-2.30
2019-01-10T04:07:00.230Z,-2.30
2019-01-10T04:09:28.756Z,-2.30
2019-01-10T04:11:57.372Z,-2.30
2019-01-10T04:14:25.779Z,-2.20
2019-01-10T04:16:54.522Z,-2.30
2019-01-10T04:19:23.014Z,-2.20
2019-01-10T04:21:51.580Z,-2.30
2019-01-10T04:24:20.030Z,-2.10
2019-01-10T04:26:48.420Z,-2.10
2019-01-10T04:29:16.929Z,-2.00
2019-01-10T04:31:45.585Z,-2.00
2019-01-10T04:34:14.471Z,-2.00
2019-01-10T04:36:43.259Z,-2.00
2019-01-10T04:39:11.764Z,-2.00
2019-01-10T04:41:40.590Z,-2.10
2019-01-10T04:44:09.331Z,-2.00
2019-01-10T04:46:38.199Z,-2.00
2019-01-10T04:49:06.933Z,-2.00
2019-01-10T04:51:35.387Z,-2.00
2019-01-10T04:54:04.108Z,-1.90
2019-01-10T04:56:32.739Z,-1.90
2019-01-10T04:59:01.155Z,-1.80
2019-01-10T05:01:29.732Z,-1.80
2019-01-10T05:03:58.398Z,-1.80
2019-01-10T05:06:26.866Z,-1.90
2019-01-10T05:08:55.507Z,-2.00
2019-01-10T05:11:24.279Z,-2.00
2019-01-10T05:13:52.722Z,-2.00
2019-01-10T05:16:21.307Z,-2.00
2019-01-10T05:18:50.135Z,-1.90
2019-01-10T05:21:18.534Z,-1.90
2019-01-10T05:23:46.964Z,-1.80
2019-01-10T05:26:15.414Z,-1.80
2019-01-10T05:28:44.135Z,-1.90
2019-01-10T05:31:13.028Z,-1.90
2019-01-10T05:33:41.423Z,-2.00
2019-01-10T05:36:10.278Z,-1.90
2019-01-10T05:38:38.978Z,-1.90
2019-01-10T05:41:07.449Z,-1.80
2019-01-10T05:43:36.148Z,-1.90
2019-01-10T05:46:04.580Z,-1.90
2019-01-10T05:48:33.499Z,-1.70
2019-01-10T05:51:02.275Z,-1.70
2019-01-10T05:53:31.094Z,-1.90
2019-01-10T05:55:59.502Z,-1.90
2019-01-10T05:58:27.890Z,-1.90
2019-01-10T06:00:56.492Z,-1.90
2019-01-10T06:03:25.487Z,-1.70
2019-01-10T06:05:54.908Z,-1.80
2019-01-10T06:08:23.593Z,-1.70
2019-01-10T06:10:52.157Z,-1.60
2019-01-10T06:13:20.723Z,-1.60
2019-01-10T06:15:49.620Z,-1.70
2019-01-10T06:18:18.019Z,-1.60
2019-01-10T06:20:46.579Z,-1.60
2019-01-10T06:23:15.278Z,-1.60
2019-01-10T06:25:43.888Z,-1.70
2019-01-10T06:28:12.668Z,-1.70
2019-01-10T06:30:41.375Z,-1.70
2019-01-10T06:33:09.824Z,-1.70
2019-01-10T06:35:38.417Z,-1.70
2019-01-10T06:38:06.847Z,-1.80
2019-01-10T06:40:35.458Z,-1.70
2019-01-10T06:43:03.855Z,-1.60
2019-01-10T06:45:32.292Z,-1.70
2019-01-10T06:48:00.892Z,-1.70
2019-01-10T06:50:29.286Z,-1.80
2019-01-10T06:52:57.722Z,-1.70
2019-01-10T06:55:26.114Z,-1.70
2019-01-10T06:57:54.599Z,-1.70
2019-01-10T07:00:24.236Z,-1.70
2019-01-10T07:02:52.772Z,-1.80
2019-01-10T07:18:14.209Z,-1.60
2019-01-10T07:20:42.653Z,-1.70
2019-01-10T07:23:11.082Z,-1.70
2019-01-10T07:25:39.593Z,-1.80
2019-01-10T07:28:24.471Z,-1.70
2019-01-10T07:30:54.260Z,-1.50
2019-01-10T07:33:22.816Z,-1.50
2019-01-10T07:35:55.396Z,-1.60
2019-01-10T07:38:24.371Z,-1.60
2019-01-10T07:40:53.106Z,-1.50
2019-01-10T07:43:22.944Z,-1.50
2019-01-10T07:45:51.389Z,-1.40
2019-01-10T07:48:19.860Z,-1.30
2019-01-10T07:50:48.806Z,-1.30
2019-01-10T07:53:17.447Z,-1.30
2019-01-10T07:55:46.316Z,-1.30
2019-01-10T07:58:14.976Z,-1.20
2019-01-10T08:00:43.415Z,-1.20
2019-01-10T08:03:11.994Z,-1.30
2019-01-10T08:05:40.869Z,-1.20
2019-01-10T08:08:09.448Z,-1.30
2019-01-10T08:10:38.630Z,-1.30
2019-01-10T08:13:07.175Z,-1.30
2019-01-10T08:15:35.882Z,-1.50
2019-01-10T08:18:04.528Z,-1.50
2019-01-10T08:20:34.034Z,-1.50
2019-01-10T08:23:02.491Z,-1.60
2019-01-10T08:25:31.147Z,-1.60
2019-01-10T08:27:59.776Z,-1.50
2019-01-10T08:30:28.531Z,-1.50
2019-01-10T08:32:57.196Z,-1.60
2019-01-10T08:35:25.907Z,-1.50
2019-01-10T08:37:54.411Z,-1.40
2019-01-10T08:40:22.807Z,-1.40
2019-01-10T08:42:51.572Z,-1.40
2019-01-10T08:45:21.717Z,-1.30
2019-01-10T08:47:50.703Z,-1.30
2019-01-10T08:50:21.434Z,-1.30
2019-01-10T08:52:49.930Z,-1.30
2019-01-10T08:55:18.269Z,-1.30
2019-01-10T08:57:46.947Z,-1.20
2019-01-10T09:00:18.084Z,-1.20
2019-01-10T09:02:46.718Z,-1.20
2019-01-10T09:05:15.568Z,-1.10
2019-01-10T09:07:44.270Z,-1.20
2019-01-10T09:10:21.442Z,-1.30
2019-01-10T09:12:50.198Z,-1.30
2019-01-10T09:15:25.272Z,-1.60
2019-01-10T09:17:49.067Z,-1.60
2019-01-10T09:20:17.535Z,-1.50
2019-01-10T09:22:46.906Z,-1.60
2019-01-10T09:25:17.698Z,-1.40
2019-01-10T09:27:46.199Z,-1.30
2019-01-10T09:30:21.269Z,-1.20
2019-01-10T09:32:50.220Z,-1.00
2019-01-10T09:35:19.379Z,-1.20
2019-01-10T09:37:47.848Z,-1.40
2019-01-10T09:40:18.525Z,-1.50
2019-01-10T09:42:47.436Z,-1.50
2019-01-10T09:45:21.060Z,-1.60
2019-01-10T09:47:49.760Z,-1.60
2019-01-10T09:50:20.194Z,-1.30
2019-01-10T09:52:49.082Z,-1.20
2019-01-10T09:55:18.235Z,-1.10
2019-01-10T09:57:46.635Z,-1.10
2019-01-10T10:00:20.662Z,-1.20
2019-01-10T10:02:49.382Z,-1.10
2019-01-10T10:05:18.024Z,-1.10
2019-01-10T10:07:46.589Z,-1.20
2019-01-10T10:10:18.412Z,-1.30
2019-01-10T10:12:47.250Z,-1.30
2019-01-10T10:15:17.359Z,-1.30
2019-01-10T10:17:49.854Z,-1.30
2019-01-10T10:20:20.547Z,-1.40
2019-01-10T10:22:49.127Z,-1.40
2019-01-10T10:25:18.707Z,-1.30
2019-01-10T10:27:47.174Z,-1.20
2019-01-10T10:30:17.808Z,-1.00
2019-01-10T10:32:46.878Z,-1.00
2019-01-10T10:35:15.562Z,-1.00
2019-01-10T10:37:45.092Z,-0.80
2019-01-10T10:40:16.071Z,-1.00
2019-01-10T10:42:44.802Z,-1.00
2019-01-10T10:45:18.050Z,-0.90
2019-01-10T10:47:46.483Z,-1.00
2019-01-10T10:50:20.683Z,-1.20
2019-01-10T10:52:49.075Z,-1.50
2019-01-10T10:55:17.768Z,-1.20
2019-01-10T10:57:46.270Z,-1.10
2019-01-10T11:00:20.884Z,-1.10
2019-01-10T11:02:49.593Z,-1.20
2019-01-10T11:05:18.595Z,-1.10
2019-01-10T11:07:47.363Z,-1.30
2019-01-10T11:10:19.319Z,-1.00
2019-01-10T11:12:49.383Z,-1.20
2019-01-10T11:15:18.579Z,-1.30
2019-01-10T11:17:49.897Z,-1.40
2019-01-10T11:20:20.837Z,-1.20
2019-01-10T11:22:49.919Z,-1.30
2019-01-10T11:25:23.923Z,-1.40
2019-01-10T11:27:53.404Z,-1.50
2019-01-10T11:30:22.175Z,-1.40
2019-01-10T11:32:51.110Z,-1.50
2019-01-10T11:35:19.666Z,-1.20
2019-01-10T11:37:49.279Z,-1.20
2019-01-10T11:40:20.353Z,-1.10
2019-01-10T11:42:50.927Z,-0.90
2019-01-10T11:45:21.615Z,-0.90
2019-01-10T11:47:50.083Z,-0.90
2019-01-10T11:50:19.360Z,-1.10
2019-01-10T11:52:48.294Z,-1.20
2019-01-10T11:55:17.878Z,-1.40
2019-01-10T11:57:46.917Z,-1.40
2019-01-10T12:00:18.967Z,-1.50
2019-01-10T12:02:47.858Z,-1.50
2019-01-10T12:05:16.377Z,-1.50
2019-01-10T12:07:45.372Z,-1.40
2019-01-10T12:10:13.968Z,-1.50
2019-01-10T12:12:42.477Z,-1.80
2019-01-10T12:15:12.473Z,-1.70
2019-01-10T12:17:40.983Z,-1.80
2019-01-10T12:20:12.468Z,-1.80
2019-01-10T12:22:41.292Z,-1.80
2019-01-10T12:25:12.078Z,-1.70
2019-01-10T12:27:40.650Z,-1.70
2019-01-10T12:30:16.243Z,-1.70
2019-01-10T12:32:44.944Z,-1.70
2019-01-10T12:35:13.644Z,-1.60
2019-01-10T12:37:42.698Z,-1.80
2019-01-10T12:40:13.556Z,-1.70
2019-01-10T12:42:42.576Z,-1.80
2019-01-10T12:45:13.151Z,-1.80
2019-01-10T12:47:41.737Z,-1.80
2019-01-10T12:50:19.107Z,-1.90
2019-01-10T12:52:47.516Z,-2.00
2019-01-10T12:55:16.268Z,-2.00
2019-01-10T12:57:44.998Z,-2.00
2019-01-10T13:00:16.506Z,-1.90
2019-01-10T13:02:45.203Z,-2.00
2019-01-10T13:05:13.703Z,-2.00
2019-01-10T13:07:42.368Z,-1.90
2019-01-10T13:10:16.209Z,-1.90
2019-01-10T13:12:45.094Z,-1.90
2019-01-10T13:15:17.006Z,-1.80
2019-01-10T13:17:45.647Z,-1.70
2019-01-10T13:20:14.456Z,-1.90
2019-01-10T13:22:43.125Z,-1.80
2019-01-10T13:25:14.468Z,-1.90
2019-01-10T13:27:44.472Z,-2.00
2019-01-10T13:30:20.371Z,-2.10
2019-01-10T13:32:49.867Z,-2.20
2019-01-10T13:35:18.679Z,-2.00
2019-01-10T13:37:47.303Z,-2.10
2019-01-10T13:40:17.480Z,-2.10
2019-01-10T13:42:50.987Z,-2.00
2019-01-10T13:45:20.730Z,-2.10
2019-01-10T13:47:51.279Z,-2.00
2019-01-10T13:50:23.788Z,-2.10
2019-01-10T13:52:56.345Z,-2.00
2019-01-10T13:55:29.275Z,-2.10
2019-01-10T13:58:02.924Z,-2.10
2019-01-10T14:00:35.763Z,-1.90
2019-01-10T14:03:11.526Z,-2.00
2019-01-10T14:05:36.066Z,-2.10
2019-01-10T14:08:05.034Z,-2.00
2019-01-10T14:10:36.288Z,-2.00
2019-01-10T14:13:08.580Z,-2.00
2019-01-10T14:15:38.198Z,-1.90
2019-01-10T14:18:10.603Z,-2.00
2019-01-10T14:20:40.511Z,-2.00
2019-01-10T14:23:12.580Z,-2.00
2019-01-10T14:25:46.775Z,-2.00
2019-01-10T14:28:18.819Z,-2.10
2019-01-10T14:30:49.636Z,-2.20
2019-01-10T14:33:22.255Z,-2.20
2019-01-10T14:35:53.674Z,-2.20
2019-01-10T14:38:22.636Z,-2.30
2019-01-10T14:40:54.235Z,-2.30
2019-01-10T14:43:25.430Z,-2.30
2019-01-10T14:45:55.189Z,-2.30
2019-01-10T14:48:28.671Z,-2.30
2019-01-10T14:50:57.178Z,-2.30
2019-01-10T14:53:26.951Z,-2.30
2019-01-10T14:55:56.333Z,-2.40
2019-01-10T14:58:25.023Z,-2.40
2019-01-10T15:00:55.623Z,-2.40
2019-01-10T15:03:26.425Z,-2.50
2019-01-10T15:05:56.658Z,-2.50
2019-01-10T15:08:27.605Z,-2.50
2019-01-10T15:10:56.325Z,-2.50
2019-01-10T15:13:24.732Z,-2.40
2019-01-10T15:15:56.953Z,-2.40
2019-01-10T15:18:31.836Z,-2.20
2019-01-10T15:21:00.354Z,-2.20
2019-01-10T15:23:30.671Z,-2.30
2019-01-10T15:25:59.999Z,-2.40
2019-01-10T15:28:30.176Z,-2.50
2019-01-10T15:31:00.262Z,-2.40
2019-01-10T15:33:37.759Z,-2.40
2019-01-10T15:36:07.812Z,-2.40
2019-01-10T15:38:38.475Z,-2.50
2019-01-10T15:41:09.144Z,-2.50
2019-01-10T15:43:38.810Z,-2.60
2019-01-10T15:46:14.059Z,-2.60
2019-01-10T15:48:46.474Z,-2.50
2019-01-10T15:51:16.441Z,-2.50
2019-01-10T15:53:46.335Z,-2.50
2019-01-10T15:56:18.426Z,-2.30
2019-01-10T15:58:49.116Z,-2.30
2019-01-10T16:01:18.701Z,-2.30
2019-01-10T16:03:48.702Z,-2.30
2019-01-10T16:06:18.970Z,-2.40
2019-01-10T16:08:47.577Z,-2.40
2019-01-10T16:11:16.884Z,-2.50
2019-01-10T16:13:45.688Z,-2.50
2019-01-10T16:16:14.875Z,-2.40
2019-01-10T16:18:46.218Z,-2.40
2019-01-10T16:21:16.854Z,-2.40
2019-01-10T16:23:45.288Z,-2.50
2019-01-10T16:26:15.975Z,-2.40
2019-01-10T16:28:47.200Z,-2.50
2019-01-10T16:31:21.918Z,-2.60
2019-01-10T16:33:56.433Z,-2.50
2019-01-10T16:36:28.147Z,-2.50
2019-01-10T16:39:00.609Z,-2.50
2019-01-10T16:41:31.265Z,-2.50
2019-01-10T16:44:07.726Z,-2.40
2019-01-10T16:46:37.887Z,-2.40
2019-01-10T16:49:13.569Z,-2.50
2019-01-10T16:51:42.150Z,-2.60
2019-01-10T16:54:12.896Z,-2.60
2019-01-10T16:56:44.750Z,-2.60
2019-01-10T16:59:14.942Z,-2.50
2019-01-10T17:01:45.920Z,-2.60
2019-01-10T17:04:17.792Z,-2.60
2019-01-10T17:06:46.467Z,-2.60
2019-01-10T17:09:17.852Z,-2.70
2019-01-10T17:11:50.247Z,-2.60
2019-01-10T17:14:22.810Z,-2.60
2019-01-10T17:16:53.356Z,-2.70
2019-01-10T17:19:24.282Z,-2.60
2019-01-10T17:21:55.015Z,-2.60
2019-01-10T17:24:26.759Z,-2.60
2019-01-10T17:26:58.357Z,-2.70
2019-01-10T17:29:29.340Z,-2.70
2019-01-10T17:32:00.579Z,-2.70
2019-01-10T17:34:29.255Z,-2.70
2019-01-10T17:37:00.252Z,-2.70
2019-01-10T17:39:31.546Z,-2.70
2019-01-10T17:42:02.752Z,-2.70
2019-01-10T17:44:34.395Z,-2.80
2019-01-10T17:47:02.941Z,-2.80
2019-01-10T17:49:33.713Z,-2.90
2019-01-10T17:52:05.064Z,-2.90
2019-01-10T17:54:35.483Z,-2.90
2019-01-10T17:57:05.723Z,-2.90
2019-01-10T17:59:35.987Z,-3.00
2019-01-10T18:02:04.367Z,-2.90
2019-01-10T18:04:35.036Z,-2.90
2019-01-10T18:07:05.486Z,-3.00
2019-01-10T18:09:34.325Z,-2.90
2019-01-10T18:12:04.953Z,-2.90
2019-01-10T18:14:35.275Z,-2.80
2019-01-10T18:17:05.503Z,-2.90
2019-01-10T18:19:35.655Z,-2.90
2019-01-10T18:22:06.364Z,-3.00
2019-01-10T18:24:38.402Z,-3.20
2019-01-10T18:27:08.373Z,-3.20
2019-01-10T18:29:38.882Z,-3.20
2019-01-10T18:32:09.195Z,-3.20
2019-01-10T18:34:39.340Z,-3.20
2019-01-10T18:37:10.677Z,-3.20
2019-01-10T18:39:41.114Z,-3.30
2019-01-10T18:42:12.179Z,-3.30
2019-01-10T18:44:42.407Z,-3.30
2019-01-10T18:47:13.051Z,-3.40
2019-01-10T18:49:44.042Z,-3.40
2019-01-10T18:52:12.739Z,-3.40
2019-01-10T18:54:41.512Z,-3.30
2019-01-10T18:57:10.177Z,-3.50
2019-01-10T18:59:38.822Z,-3.40
2019-01-10T19:02:07.733Z,-3.40
2019-01-10T19:04:36.572Z,-3.50
2019-01-10T19:07:05.925Z,-3.50
2019-01-10T19:09:34.718Z,-3.60
2019-01-10T19:12:04.862Z,-3.70
2019-01-10T19:14:33.425Z,-3.70
2019-01-10T19:17:02.543Z,-3.70
2019-01-10T19:19:31.559Z,-3.60
2019-01-10T19:22:00.450Z,-3.60
2019-01-10T19:24:31.450Z,-3.60
2019-01-10T19:26:59.578Z,-3.60
2019-01-10T19:29:28.367Z,-3.80
2019-01-10T19:31:57.847Z,-3.70
2019-01-10T19:34:27.207Z,-3.90
2019-01-10T19:36:56.458Z,-3.90
2019-01-10T19:39:26.355Z,-3.80
2019-01-10T19:41:55.480Z,-3.80
2019-01-10T19:44:24.387Z,-3.70
2019-01-10T19:46:53.020Z,-3.80
2019-01-10T19:49:21.920Z,-3.90
2019-01-10T19:51:52.080Z,-4.00
2019-01-10T19:54:20.753Z,-4.00
2019-01-10T19:56:49.640Z,-4.00
2019-01-10T19:59:18.055Z,-4.20
2019-01-10T20:01:46.705Z,-4.10
2019-01-10T20:04:15.795Z,-4.10
2019-01-10T20:06:45.013Z,-4.00
2019-01-10T20:09:13.477Z,-4.20
2019-01-10T20:11:44.514Z,-4.20
2019-01-10T20:14:12.687Z,-4.20
2019-01-10T20:16:41.245Z,-4.30
2019-01-10T20:19:11.343Z,-4.30
2019-01-10T20:21:39.807Z,-4.40
2019-01-10T20:24:08.526Z,-4.40
2019-01-10T20:26:36.967Z,-4.40
2019-01-10T20:29:05.367Z,-4.50
2019-01-10T20:31:33.989Z,-4.40
2019-01-10T20:34:02.775Z,-4.40
2019-01-10T20:36:31.324Z,-4.40
2019-01-10T20:39:01.870Z,-4.40
2019-01-10T20:41:31.409Z,-4.50
2019-01-10T20:44:00.012Z,-4.50
2019-01-10T20:46:28.908Z,-4.60
2019-01-10T20:48:57.426Z,-4.50
2019-01-10T20:51:25.936Z,-4.40
2019-01-10T20:53:54.411Z,-4.60
2019-01-10T20:56:23.252Z,-4.50
2019-01-10T20:58:52.164Z,-4.50
2019-01-10T21:01:21.256Z,-4.50
2019-01-10T21:03:50.527Z,-4.60
2019-01-10T21:06:19.191Z,-4.70
2019-01-10T21:08:48.118Z,-4.60
2019-01-10T21:11:16.742Z,-4.50
2019-01-10T21:13:45.335Z,-4.60
2019-01-10T21:16:14.107Z,-4.70
2019-01-10T21:18:42.825Z,-4.70
2019-01-10T21:21:11.232Z,-4.70
2019-01-10T21:23:39.951Z,-4.60
2019-01-10T21:26:08.700Z,-4.60
2019-01-10T21:28:37.095Z,-4.60
2019-01-10T21:31:05.975Z,-4.60
2019-01-10T21:33:34.788Z,-4.60
2019-01-10T21:36:03.184Z,-4.60
2019-01-10T21:38:31.610Z,-4.60
2019-01-10T21:41:00.746Z,-4.70
2019-01-10T21:43:30.776Z,-4.50
2019-01-10T21:46:00.372Z,-4.50
2019-01-10T21:48:34.852Z,-4.60
2019-01-10T21:50:59.128Z,-4.60
2019-01-10T21:53:28.466Z,-4.50
2019-01-10T21:55:57.204Z,-4.60
2019-01-10T21:58:26.239Z,-4.60
2019-01-10T22:00:55.439Z,-4.70
2019-01-10T22:03:24.200Z,-4.70
2019-01-10T22:05:52.919Z,-4.70
2019-01-10T22:08:21.299Z,-4.70
2019-01-10T22:10:49.819Z,-4.70
2019-01-10T22:13:18.387Z,-4.80
2019-01-10T22:15:46.862Z,-4.80
2019-01-10T22:18:15.406Z,-4.80
2019-01-10T22:20:43.796Z,-4.80
2019-01-10T22:23:12.342Z,-4.80
2019-01-10T22:25:40.897Z,-4.80
2019-01-10T22:28:09.367Z,-4.90
2019-01-10T22:30:37.960Z,-4.80
2019-01-10T22:33:07.010Z,-4.80
2019-01-10T22:35:35.668Z,-4.80
2019-01-10T22:38:04.212Z,-4.90
2019-01-10T22:40:33.032Z,-4.90
2019-01-10T22:43:01.603Z,-5.00
2019-01-10T22:45:31.102Z,-5.00
2019-01-10T22:47:59.548Z,-5.00
2019-01-10T22:50:28.168Z,-5.00
2019-01-10T22:52:57.100Z,-5.00
2019-01-10T22:55:25.711Z,-5.00
2019-01-10T22:57:54.104Z,-5.00
2019-01-10T23:00:52.554Z,-5.00
2019-01-10T23:03:21.209Z,-5.00
2019-01-10T23:05:49.676Z,-4.90
2019-01-10T23:08:18.258Z,-4.90
2019-01-10T23:10:46.653Z,-5.00
2019-01-10T23:13:15.124Z,-5.10
2019-01-10T23:15:43.661Z,-5.00
2019-01-10T23:18:12.064Z,-5.00
2019-01-10T23:20:40.467Z,-5.00
2019-01-10T23:23:11.800Z,-5.00
2019-01-10T23:25:40.610Z,-5.10
2019-01-10T23:28:09.154Z,-5.10
2019-01-10T23:30:49.208Z,-5.00
2019-01-10T23:33:19.090Z,-5.20
2019-01-10T23:35:48.823Z,-5.20
2019-01-10T23:38:21.672Z,-5.10
2019-01-10T23:40:50.151Z,-5.20
2019-01-10T23:43:18.564Z,-5.20
2019-01-10T23:45:48.365Z,-5.30
2019-01-10T23:48:16.762Z,-5.20
2019-01-10T23:50:45.459Z,-5.20
2019-01-10T23:53:14.418Z,-5.30
2019-01-10T23:55:42.907Z,-5.30
2019-01-10T23:58:11.687Z,-5.30
